sensor_id;sensor_type;location;lat;lon;timestamp;P1;durP1;ratioP1;P2;durP2;ratioP2
48987;SDS011;34799;51.440;-2.534;2022-12-07T00:01:08;13.18;;;6.85;;
48987;SDS011;34799;51.440;-2.534;2022-12-07T00:03:37;13.77;;;6.70;;
48987;SDS011;34799;51.440;-2.534;2022-12-07T00:06:05;16.63;;;7.68;;
48987;SDS011;34799;51.440;-2.534;2022-12-07T00:08:34;13.70;;;6.53;;
48987;SDS011;34799;51.440;-2.534;2022-12-07T00:11:04;21.27;;;7.68;;
48987;SDS011;34799;51.440;-2.534;2022-12-07T00:13:34;13.50;;;6.80;;
48987;SDS011;34799;51.440;-2.534;2022-12-07T00:16:02;12.93;;;6.53;;
48987;SDS011;34799;51.440;-2.534;2022-12-07T00:18:37;13.43;;;6.50;;
48987;SDS011;34799;51.440;-2.534;2022-12-07T00:21:13;17.42;;;7.20;;
48987;SDS011;34799;51.440;-2.534;2022-12-07T00:23:48;18.23;;;7.38;;
48987;SDS011;34799;51.440;-2.534;2022-12-07T00:26:18;15.63;;;7.03;;
48987;SDS011;34799;51.440;-2.534;2022-12-07T00:28:54;16.48;;;6.45;;
48987;SDS011;34799;51.440;-2.534;2022-12-07T00:31:24;17.05;;;6.82;;
48987;SDS011;34799;51.440;-2.534;2022-12-07T00:33:56;16.83;;;7.05;;
48987;SDS011;34799;51.440;-2.534;2022-12-07T00:36:24;12.75;;;6.38;;
48987;SDS011;34799;51.440;-2.534;2022-12-07T00:38:53;14.20;;;6.50;;
48987;SDS011;34799;51.440;-2.534;2022-12-07T00:41:22;14.32;;;6.40;;
48987;SDS011;34799;51.440;-2.534;2022-12-07T00:43:52;15.25;;;6.60;;
48987;SDS011;34799;51.440;-2.534;2022-12-07T00:46:19;14.63;;;7.43;;
48987;SDS011;34799;51.440;-2.534;2022-12-07T00:48:47;17.77;;;6.93;;
48987;SDS011;34799;51.440;-2.534;2022-12-07T00:51:16;13.45;;;6.25;;
48987;SDS011;34799;51.440;-2.534;2022-12-07T00:53:46;15.65;;;6.22;;
48987;SDS011;34799;51.440;-2.534;2022-12-07T00:56:31;13.52;;;6.55;;
48987;SDS011;34799;51.440;-2.534;2022-12-07T00:59:00;14.50;;;6.55;;
48987;SDS011;34799;51.440;-2.534;2022-12-07T01:01:29;16.80;;;6.15;;
48987;SDS011;34799;51.440;-2.534;2022-12-07T01:03:58;12.45;;;6.28;;
48987;SDS011;34799;51.440;-2.534;2022-12-07T01:06:29;14.38;;;6.00;;
48987;SDS011;34799;51.440;-2.534;2022-12-07T01:08:58;13.35;;;6.18;;
48987;SDS011;34799;51.440;-2.534;2022-12-07T01:11:27;13.48;;;6.13;;
48987;SDS011;34799;51.440;-2.534;2022-12-07T01:13:56;17.13;;;7.10;;
48987;SDS011;34799;51.440;-2.534;2022-12-07T01:16:25;14.10;;;5.95;;
48987;SDS011;34799;51.440;-2.534;2022-12-07T01:18:54;13.80;;;6.07;;
48987;SDS011;34799;51.440;-2.534;2022-12-07T01:21:26;14.95;;;5.35;;
48987;SDS011;34799;51.440;-2.534;2022-12-07T01:23:56;14.23;;;6.00;;
48987;SDS011;34799;51.440;-2.534;2022-12-07T01:26:26;19.90;;;6.63;;
48987;SDS011;34799;51.440;-2.534;2022-12-07T01:28:53;18.00;;;6.72;;
48987;SDS011;34799;51.440;-2.534;2022-12-07T01:31:22;13.35;;;6.35;;
48987;SDS011;34799;51.440;-2.534;2022-12-07T01:33:54;12.77;;;6.22;;
48987;SDS011;34799;51.440;-2.534;2022-12-07T01:36:41;11.90;;;6.47;;
48987;SDS011;34799;51.440;-2.534;2022-12-07T01:39:08;14.80;;;6.53;;
48987;SDS011;34799;51.440;-2.534;2022-12-07T01:41:38;13.63;;;6.53;;
48987;SDS011;34799;51.440;-2.534;2022-12-07T01:46:53;13.20;;;6.55;;
48987;SDS011;34799;51.440;-2.534;2022-12-07T01:49:41;10.52;;;5.60;;
48987;SDS011;34799;51.440;-2.534;2022-12-07T01:52:17;12.15;;;6.07;;
48987;SDS011;34799;51.440;-2.534;2022-12-07T01:54:51;13.88;;;6.47;;
48987;SDS011;34799;51.440;-2.534;2022-12-07T01:57:23;13.98;;;6.53;;
48987;SDS011;34799;51.440;-2.534;2022-12-07T01:59:51;15.57;;;6.32;;
48987;SDS011;34799;51.440;-2.534;2022-12-07T02:02:21;15.05;;;6.68;;
48987;SDS011;34799;51.440;-2.534;2022-12-07T02:04:53;17.20;;;7.22;;
48987;SDS011;34799;51.440;-2.534;2022-12-07T02:07:22;12.80;;;6.60;;
48987;SDS011;34799;51.440;-2.534;2022-12-07T02:09:50;15.32;;;7.00;;
48987;SDS011;34799;51.440;-2.534;2022-12-07T02:12:17;14.90;;;7.03;;
48987;SDS011;34799;51.440;-2.534;2022-12-07T02:14:46;13.18;;;6.22;;
48987;SDS011;34799;51.440;-2.534;2022-12-07T02:17:15;11.40;;;5.72;;
48987;SDS011;34799;51.440;-2.534;2022-12-07T02:20:21;13.38;;;6.13;;
48987;SDS011;34799;51.440;-2.534;2022-12-07T02:23:03;14.57;;;6.07;;
48987;SDS011;34799;51.440;-2.534;2022-12-07T02:31:21;13.55;;;6.22;;
48987;SDS011;34799;51.440;-2.534;2022-12-07T02:33:54;15.85;;;6.63;;
48987;SDS011;34799;51.440;-2.534;2022-12-07T02:36:32;17.42;;;6.25;;
48987;SDS011;34799;51.440;-2.534;2022-12-07T02:39:11;13.77;;;6.63;;
48987;SDS011;34799;51.440;-2.534;2022-12-07T02:41:44;14.25;;;6.78;;
48987;SDS011;34799;51.440;-2.534;2022-12-07T02:44:20;11.85;;;6.15;;
48987;SDS011;34799;51.440;-2.534;2022-12-07T02:46:55;15.77;;;5.95;;
48987;SDS011;34799;51.440;-2.534;2022-12-07T02:51:55;13.25;;;5.80;;
48987;SDS011;34799;51.440;-2.534;2022-12-07T02:54:24;13.93;;;5.63;;
48987;SDS011;34799;51.440;-2.534;2022-12-07T02:56:53;11.70;;;5.57;;
48987;SDS011;34799;51.440;-2.534;2022-12-07T03:02:10;16.58;;;6.50;;
48987;SDS011;34799;51.440;-2.534;2022-12-07T03:07:33;13.93;;;5.90;;
48987;SDS011;34799;51.440;-2.534;2022-12-07T03:10:09;13.40;;;6.43;;
48987;SDS011;34799;51.440;-2.534;2022-12-07T03:18:28;13.50;;;6.38;;
48987;SDS011;34799;51.440;-2.534;2022-12-07T03:21:01;12.52;;;5.63;;
48987;SDS011;34799;51.440;-2.534;2022-12-07T03:23:31;17.02;;;5.57;;
48987;SDS011;34799;51.440;-2.534;2022-12-07T03:26:02;12.77;;;6.35;;
48987;SDS011;34799;51.440;-2.534;2022-12-07T03:28:33;13.60;;;6.03;;
48987;SDS011;34799;51.440;-2.534;2022-12-07T03:31:17;11.00;;;6.00;;
48987;SDS011;34799;51.440;-2.534;2022-12-07T03:33:56;12.48;;;5.32;;
48987;SDS011;34799;51.440;-2.534;2022-12-07T03:36:38;11.52;;;5.75;;
48987;SDS011;34799;51.440;-2.534;2022-12-07T03:39:13;13.18;;;5.95;;
48987;SDS011;34799;51.440;-2.534;2022-12-07T03:41:54;12.68;;;5.68;;
48987;SDS011;34799;51.440;-2.534;2022-12-07T03:44:23;15.82;;;6.32;;
48987;SDS011;34799;51.440;-2.534;2022-12-07T03:54:45;16.02;;;5.78;;
48987;SDS011;34799;51.440;-2.534;2022-12-07T03:57:31;13.20;;;5.15;;
48987;SDS011;34799;51.440;-2.534;2022-12-07T04:00:03;13.20;;;5.93;;
48987;SDS011;34799;51.440;-2.534;2022-12-07T04:02:37;13.98;;;5.55;;
48987;SDS011;34799;51.440;-2.534;2022-12-07T04:05:05;14.35;;;5.55;;
48987;SDS011;34799;51.440;-2.534;2022-12-07T04:07:33;14.50;;;5.25;;
48987;SDS011;34799;51.440;-2.534;2022-12-07T04:10:00;16.65;;;6.13;;
48987;SDS011;34799;51.440;-2.534;2022-12-07T04:12:27;12.32;;;5.50;;
48987;SDS011;34799;51.440;-2.534;2022-12-07T04:14:55;14.55;;;5.80;;
48987;SDS011;34799;51.440;-2.534;2022-12-07T04:17:22;10.98;;;5.20;;
48987;SDS011;34799;51.440;-2.534;2022-12-07T04:19:49;12.60;;;5.53;;
48987;SDS011;34799;51.440;-2.534;2022-12-07T04:22:16;12.27;;;5.75;;
48987;SDS011;34799;51.440;-2.534;2022-12-07T04:24:43;12.10;;;5.68;;
48987;SDS011;34799;51.440;-2.534;2022-12-07T04:27:10;11.60;;;5.50;;
48987;SDS011;34799;51.440;-2.534;2022-12-07T04:29:38;11.98;;;5.15;;
48987;SDS011;34799;51.440;-2.534;2022-12-07T04:32:05;14.07;;;6.05;;
48987;SDS011;34799;51.440;-2.534;2022-12-07T04:34:33;12.60;;;5.80;;
48987;SDS011;34799;51.440;-2.534;2022-12-07T04:37:00;14.05;;;6.03;;
48987;SDS011;34799;51.440;-2.534;2022-12-07T04:39:28;10.60;;;5.03;;
48987;SDS011;34799;51.440;-2.534;2022-12-07T04:41:56;13.55;;;6.45;;
48987;SDS011;34799;51.440;-2.534;2022-12-07T04:44:26;13.48;;;5.40;;
48987;SDS011;34799;51.440;-2.534;2022-12-07T04:46:53;12.38;;;5.30;;
48987;SDS011;34799;51.440;-2.534;2022-12-07T04:49:21;14.02;;;5.97;;
48987;SDS011;34799;51.440;-2.534;2022-12-07T04:51:48;13.55;;;6.30;;
48987;SDS011;34799;51.440;-2.534;2022-12-07T04:54:17;13.43;;;5.82;;
48987;SDS011;34799;51.440;-2.534;2022-12-07T04:56:44;12.45;;;5.15;;
48987;SDS011;34799;51.440;-2.534;2022-12-07T04:59:12;10.40;;;5.75;;
48987;SDS011;34799;51.440;-2.534;2022-12-07T05:01:40;17.52;;;6.10;;
48987;SDS011;34799;51.440;-2.534;2022-12-07T05:04:08;18.63;;;6.50;;
48987;SDS011;34799;51.440;-2.534;2022-12-07T05:06:36;15.20;;;5.97;;
48987;SDS011;34799;51.440;-2.534;2022-12-07T05:09:03;12.43;;;5.93;;
48987;SDS011;34799;51.440;-2.534;2022-12-07T05:11:31;13.35;;;6.03;;
48987;SDS011;34799;51.440;-2.534;2022-12-07T05:14:16;15.13;;;6.00;;
48987;SDS011;34799;51.440;-2.534;2022-12-07T05:16:49;13.50;;;5.78;;
48987;SDS011;34799;51.440;-2.534;2022-12-07T05:19:17;12.45;;;6.30;;
48987;SDS011;34799;51.440;-2.534;2022-12-07T05:21:45;13.52;;;6.18;;
48987;SDS011;34799;51.440;-2.534;2022-12-07T05:24:14;12.15;;;5.60;;
48987;SDS011;34799;51.440;-2.534;2022-12-07T05:26:43;10.82;;;5.57;;
48987;SDS011;34799;51.440;-2.534;2022-12-07T05:29:12;26.15;;;7.60;;
48987;SDS011;34799;51.440;-2.534;2022-12-07T05:31:41;11.68;;;5.95;;
48987;SDS011;34799;51.440;-2.534;2022-12-07T05:34:10;14.05;;;6.15;;
48987;SDS011;34799;51.440;-2.534;2022-12-07T05:36:37;13.65;;;6.03;;
48987;SDS011;34799;51.440;-2.534;2022-12-07T05:39:06;13.73;;;6.05;;
48987;SDS011;34799;51.440;-2.534;2022-12-07T05:41:33;12.23;;;5.50;;
48987;SDS011;34799;51.440;-2.534;2022-12-07T05:44:19;12.38;;;5.47;;
48987;SDS011;34799;51.440;-2.534;2022-12-07T05:46:46;11.73;;;5.57;;
48987;SDS011;34799;51.440;-2.534;2022-12-07T05:49:13;13.98;;;5.60;;
48987;SDS011;34799;51.440;-2.534;2022-12-07T05:51:41;12.65;;;5.60;;
48987;SDS011;34799;51.440;-2.534;2022-12-07T05:54:09;13.43;;;6.38;;
48987;SDS011;34799;51.440;-2.534;2022-12-07T05:56:36;11.25;;;5.70;;
48987;SDS011;34799;51.440;-2.534;2022-12-07T05:59:03;12.57;;;5.38;;
48987;SDS011;34799;51.440;-2.534;2022-12-07T06:01:56;15.90;;;5.10;;
48987;SDS011;34799;51.440;-2.534;2022-12-07T06:04:30;11.98;;;5.88;;
48987;SDS011;34799;51.440;-2.534;2022-12-07T06:06:59;12.13;;;5.20;;
48987;SDS011;34799;51.440;-2.534;2022-12-07T06:09:26;12.00;;;5.18;;
48987;SDS011;34799;51.440;-2.534;2022-12-07T06:11:55;10.98;;;5.82;;
48987;SDS011;34799;51.440;-2.534;2022-12-07T06:14:41;11.70;;;5.50;;
48987;SDS011;34799;51.440;-2.534;2022-12-07T06:17:08;8.85;;;5.00;;
48987;SDS011;34799;51.440;-2.534;2022-12-07T06:19:36;17.85;;;5.72;;
48987;SDS011;34799;51.440;-2.534;2022-12-07T06:22:03;11.13;;;4.95;;
48987;SDS011;34799;51.440;-2.534;2022-12-07T06:24:32;13.50;;;5.50;;
48987;SDS011;34799;51.440;-2.534;2022-12-07T06:27:00;13.30;;;5.68;;
48987;SDS011;34799;51.440;-2.534;2022-12-07T06:29:27;11.23;;;5.35;;
48987;SDS011;34799;51.440;-2.534;2022-12-07T06:31:54;11.40;;;5.55;;
48987;SDS011;34799;51.440;-2.534;2022-12-07T06:34:21;10.05;;;5.38;;
48987;SDS011;34799;51.440;-2.534;2022-12-07T06:36:50;11.02;;;5.43;;
48987;SDS011;34799;51.440;-2.534;2022-12-07T06:39:20;10.35;;;5.35;;
48987;SDS011;34799;51.440;-2.534;2022-12-07T06:41:48;11.45;;;5.32;;
48987;SDS011;34799;51.440;-2.534;2022-12-07T06:44:18;13.32;;;6.50;;
48987;SDS011;34799;51.440;-2.534;2022-12-07T06:46:46;10.35;;;5.35;;
48987;SDS011;34799;51.440;-2.534;2022-12-07T06:49:13;15.98;;;6.50;;
48987;SDS011;34799;51.440;-2.534;2022-12-07T06:51:40;16.92;;;7.05;;
48987;SDS011;34799;51.440;-2.534;2022-12-07T06:54:08;15.57;;;5.95;;
48987;SDS011;34799;51.440;-2.534;2022-12-07T06:56:37;12.88;;;6.22;;
48987;SDS011;34799;51.440;-2.534;2022-12-07T06:59:04;13.88;;;6.05;;
48987;SDS011;34799;51.440;-2.534;2022-12-07T07:01:33;13.40;;;6.22;;
48987;SDS011;34799;51.440;-2.534;2022-12-07T07:04:02;14.90;;;5.90;;
48987;SDS011;34799;51.440;-2.534;2022-12-07T07:06:30;14.45;;;6.55;;
48987;SDS011;34799;51.440;-2.534;2022-12-07T07:08:57;13.77;;;5.85;;
48987;SDS011;34799;51.440;-2.534;2022-12-07T07:11:24;13.45;;;6.32;;
48987;SDS011;34799;51.440;-2.534;2022-12-07T07:13:52;13.85;;;6.32;;
48987;SDS011;34799;51.440;-2.534;2022-12-07T07:16:21;13.77;;;5.75;;
48987;SDS011;34799;51.440;-2.534;2022-12-07T07:18:48;13.98;;;6.00;;
48987;SDS011;34799;51.440;-2.534;2022-12-07T07:21:15;12.52;;;6.50;;
48987;SDS011;34799;51.440;-2.534;2022-12-07T07:23:42;14.68;;;7.15;;
48987;SDS011;34799;51.440;-2.534;2022-12-07T07:26:09;12.63;;;5.90;;
48987;SDS011;34799;51.440;-2.534;2022-12-07T07:28:36;17.65;;;7.72;;
48987;SDS011;34799;51.440;-2.534;2022-12-07T07:31:03;16.55;;;6.50;;
48987;SDS011;34799;51.440;-2.534;2022-12-07T07:33:32;14.90;;;6.50;;
48987;SDS011;34799;51.440;-2.534;2022-12-07T07:35:59;18.23;;;6.97;;
48987;SDS011;34799;51.440;-2.534;2022-12-07T07:38:26;15.48;;;6.70;;
48987;SDS011;34799;51.440;-2.534;2022-12-07T07:40:53;17.60;;;7.03;;
48987;SDS011;34799;51.440;-2.534;2022-12-07T07:43:20;14.02;;;6.70;;
48987;SDS011;34799;51.440;-2.534;2022-12-07T07:45:47;14.45;;;7.05;;
48987;SDS011;34799;51.440;-2.534;2022-12-07T07:48:15;13.55;;;6.18;;
48987;SDS011;34799;51.440;-2.534;2022-12-07T07:50:43;13.32;;;6.70;;
48987;SDS011;34799;51.440;-2.534;2022-12-07T07:53:10;12.93;;;6.40;;
48987;SDS011;34799;51.440;-2.534;2022-12-07T07:55:37;13.98;;;6.30;;
48987;SDS011;34799;51.440;-2.534;2022-12-07T07:58:04;15.10;;;7.20;;
48987;SDS011;34799;51.440;-2.534;2022-12-07T08:00:31;13.25;;;6.32;;
48987;SDS011;34799;51.440;-2.534;2022-12-07T08:02:58;11.80;;;6.70;;
48987;SDS011;34799;51.440;-2.534;2022-12-07T08:05:26;13.50;;;6.50;;
48987;SDS011;34799;51.440;-2.534;2022-12-07T08:07:53;16.45;;;6.45;;
48987;SDS011;34799;51.440;-2.534;2022-12-07T08:10:21;16.27;;;7.22;;
48987;SDS011;34799;51.440;-2.534;2022-12-07T08:12:47;17.38;;;6.97;;
48987;SDS011;34799;51.440;-2.534;2022-12-07T08:15:36;16.00;;;7.40;;
48987;SDS011;34799;51.440;-2.534;2022-12-07T08:18:05;14.35;;;7.18;;
48987;SDS011;34799;51.440;-2.534;2022-12-07T08:20:32;16.27;;;8.32;;
48987;SDS011;34799;51.440;-2.534;2022-12-07T08:23:02;16.45;;;7.72;;
48987;SDS011;34799;51.440;-2.534;2022-12-07T08:25:31;15.25;;;6.70;;
48987;SDS011;34799;51.440;-2.534;2022-12-07T08:27:58;18.05;;;6.88;;
48987;SDS011;34799;51.440;-2.534;2022-12-07T08:30:27;16.40;;;7.43;;
48987;SDS011;34799;51.440;-2.534;2022-12-07T08:32:57;18.45;;;8.15;;
48987;SDS011;34799;51.440;-2.534;2022-12-07T08:35:24;21.02;;;7.80;;
48987;SDS011;34799;51.440;-2.534;2022-12-07T08:37:51;17.52;;;7.55;;
48987;SDS011;34799;51.440;-2.534;2022-12-07T08:40:18;17.23;;;7.03;;
48987;SDS011;34799;51.440;-2.534;2022-12-07T08:42:50;13.80;;;7.30;;
48987;SDS011;34799;51.440;-2.534;2022-12-07T08:45:18;18.65;;;7.13;;
48987;SDS011;34799;51.440;-2.534;2022-12-07T08:47:55;14.85;;;6.57;;
48987;SDS011;34799;51.440;-2.534;2022-12-07T08:50:28;13.77;;;6.43;;
48987;SDS011;34799;51.440;-2.534;2022-12-07T08:52:57;22.08;;;6.75;;
48987;SDS011;34799;51.440;-2.534;2022-12-07T08:55:27;14.77;;;7.00;;
48987;SDS011;34799;51.440;-2.534;2022-12-07T08:57:55;17.10;;;7.40;;
48987;SDS011;34799;51.440;-2.534;2022-12-07T09:00:25;15.93;;;7.53;;
48987;SDS011;34799;51.440;-2.534;2022-12-07T09:02:54;16.52;;;6.93;;
48987;SDS011;34799;51.440;-2.534;2022-12-07T09:05:21;14.20;;;6.63;;
48987;SDS011;34799;51.440;-2.534;2022-12-07T09:07:49;14.48;;;6.50;;
48987;SDS011;34799;51.440;-2.534;2022-12-07T09:10:21;20.50;;;7.68;;
48987;SDS011;34799;51.440;-2.534;2022-12-07T09:12:49;19.00;;;7.65;;
48987;SDS011;34799;51.440;-2.534;2022-12-07T09:15:16;27.52;;;9.35;;
48987;SDS011;34799;51.440;-2.534;2022-12-07T09:17:43;22.92;;;8.95;;
48987;SDS011;34799;51.440;-2.534;2022-12-07T09:20:12;17.95;;;8.70;;
48987;SDS011;34799;51.440;-2.534;2022-12-07T09:22:39;23.13;;;9.80;;
48987;SDS011;34799;51.440;-2.534;2022-12-07T09:25:07;25.38;;;10.57;;
48987;SDS011;34799;51.440;-2.534;2022-12-07T09:27:34;25.80;;;10.88;;
48987;SDS011;34799;51.440;-2.534;2022-12-07T09:30:01;26.67;;;11.38;;
48987;SDS011;34799;51.440;-2.534;2022-12-07T09:32:29;25.85;;;10.90;;
48987;SDS011;34799;51.440;-2.534;2022-12-07T09:34:57;26.05;;;10.02;;
48987;SDS011;34799;51.440;-2.534;2022-12-07T09:37:25;30.30;;;10.50;;
48987;SDS011;34799;51.440;-2.534;2022-12-07T09:39:52;24.50;;;9.32;;
48987;SDS011;34799;51.440;-2.534;2022-12-07T09:42:29;27.45;;;10.35;;
48987;SDS011;34799;51.440;-2.534;2022-12-07T09:45:01;28.65;;;10.30;;
48987;SDS011;34799;51.440;-2.534;2022-12-07T09:47:30;24.08;;;9.15;;
48987;SDS011;34799;51.440;-2.534;2022-12-07T09:50:05;21.27;;;8.75;;
48987;SDS011;34799;51.440;-2.534;2022-12-07T09:52:38;19.88;;;9.10;;
48987;SDS011;34799;51.440;-2.534;2022-12-07T09:55:12;24.33;;;9.10;;
48987;SDS011;34799;51.440;-2.534;2022-12-07T09:57:40;22.42;;;9.48;;
48987;SDS011;34799;51.440;-2.534;2022-12-07T10:00:13;24.80;;;10.73;;
48987;SDS011;34799;51.440;-2.534;2022-12-07T10:02:59;25.05;;;9.57;;
48987;SDS011;34799;51.440;-2.534;2022-12-07T10:05:28;22.70;;;9.63;;
48987;SDS011;34799;51.440;-2.534;2022-12-07T10:07:59;21.90;;;9.18;;
48987;SDS011;34799;51.440;-2.534;2022-12-07T10:10:33;23.45;;;10.55;;
48987;SDS011;34799;51.440;-2.534;2022-12-07T10:18:36;23.02;;;10.02;;
48987;SDS011;34799;51.440;-2.534;2022-12-07T10:23:36;26.55;;;10.88;;
48987;SDS011;34799;51.440;-2.534;2022-12-07T10:26:25;29.15;;;10.27;;
48987;SDS011;34799;51.440;-2.534;2022-12-07T10:28:56;23.98;;;9.48;;
48987;SDS011;34799;51.440;-2.534;2022-12-07T10:31:26;23.20;;;9.32;;
48987;SDS011;34799;51.440;-2.534;2022-12-07T10:39:14;16.05;;;6.88;;
48987;SDS011;34799;51.440;-2.534;2022-12-07T10:44:27;16.40;;;7.38;;
48987;SDS011;34799;51.440;-2.534;2022-12-07T11:00:21;15.15;;;7.38;;
48987;SDS011;34799;51.440;-2.534;2022-12-07T11:02:54;16.77;;;6.82;;
48987;SDS011;34799;51.440;-2.534;2022-12-07T11:05:47;16.98;;;6.85;;
48987;SDS011;34799;51.440;-2.534;2022-12-07T11:11:29;17.73;;;8.20;;
48987;SDS011;34799;51.440;-2.534;2022-12-07T11:22:04;20.90;;;7.78;;
48987;SDS011;34799;51.440;-2.534;2022-12-07T11:24:55;24.20;;;8.75;;
48987;SDS011;34799;51.440;-2.534;2022-12-07T11:27:55;16.08;;;8.02;;
48987;SDS011;34799;51.440;-2.534;2022-12-07T11:30:33;14.75;;;6.85;;
48987;SDS011;34799;51.440;-2.534;2022-12-07T11:36:09;13.88;;;5.43;;
48987;SDS011;34799;51.440;-2.534;2022-12-07T11:39:03;13.43;;;5.97;;
48987;SDS011;34799;51.440;-2.534;2022-12-07T11:41:37;14.73;;;5.50;;
48987;SDS011;34799;51.440;-2.534;2022-12-07T11:44:17;14.55;;;5.97;;
48987;SDS011;34799;51.440;-2.534;2022-12-07T11:49:35;16.50;;;5.53;;
48987;SDS011;34799;51.440;-2.534;2022-12-07T11:52:17;15.63;;;5.85;;
48987;SDS011;34799;51.440;-2.534;2022-12-07T11:54:58;19.10;;;5.35;;
48987;SDS011;34799;51.440;-2.534;2022-12-07T11:57:34;13.32;;;6.07;;
48987;SDS011;34799;51.440;-2.534;2022-12-07T12:00:12;13.00;;;5.57;;
48987;SDS011;34799;51.440;-2.534;2022-12-07T12:05:15;12.75;;;6.05;;
48987;SDS011;34799;51.440;-2.534;2022-12-07T12:07:44;13.65;;;5.32;;
48987;SDS011;34799;51.440;-2.534;2022-12-07T12:10:52;12.43;;;5.60;;
48987;SDS011;34799;51.440;-2.534;2022-12-07T12:13:47;13.68;;;4.35;;
48987;SDS011;34799;51.440;-2.534;2022-12-07T12:22:40;18.25;;;5.60;;
48987;SDS011;34799;51.440;-2.534;2022-12-07T12:25:27;11.70;;;4.50;;
48987;SDS011;34799;51.440;-2.534;2022-12-07T12:39:22;7.68;;;2.83;;
48987;SDS011;34799;51.440;-2.534;2022-12-07T12:41:51;8.40;;;2.88;;
48987;SDS011;34799;51.440;-2.534;2022-12-07T12:54:24;7.85;;;2.70;;
48987;SDS011;34799;51.440;-2.534;2022-12-07T13:02:33;5.57;;;2.63;;
48987;SDS011;34799;51.440;-2.534;2022-12-07T13:15:54;8.77;;;2.10;;
48987;SDS011;34799;51.440;-2.534;2022-12-07T13:18:36;5.47;;;2.10;;
48987;SDS011;34799;51.440;-2.534;2022-12-07T13:28:42;8.00;;;2.05;;
48987;SDS011;34799;51.440;-2.534;2022-12-07T13:33:45;12.45;;;2.05;;
48987;SDS011;34799;51.440;-2.534;2022-12-07T13:36:23;5.60;;;2.30;;
48987;SDS011;34799;51.440;-2.534;2022-12-07T13:38:53;7.47;;;1.58;;
48987;SDS011;34799;51.440;-2.534;2022-12-07T13:41:23;8.00;;;1.70;;
48987;SDS011;34799;51.440;-2.534;2022-12-07T13:44:01;9.13;;;2.22;;
48987;SDS011;34799;51.440;-2.534;2022-12-07T13:46:40;12.73;;;2.30;;
48987;SDS011;34799;51.440;-2.534;2022-12-07T13:49:25;6.35;;;2.17;;
48987;SDS011;34799;51.440;-2.534;2022-12-07T13:52:22;11.93;;;1.30;;
48987;SDS011;34799;51.440;-2.534;2022-12-07T13:54:57;8.25;;;1.98;;
48987;SDS011;34799;51.440;-2.534;2022-12-07T13:57:35;5.30;;;1.67;;
48987;SDS011;34799;51.440;-2.534;2022-12-07T14:00:05;7.75;;;1.85;;
48987;SDS011;34799;51.440;-2.534;2022-12-07T14:02:58;8.57;;;1.90;;
48987;SDS011;34799;51.440;-2.534;2022-12-07T14:05:28;7.65;;;2.80;;
48987;SDS011;34799;51.440;-2.534;2022-12-07T14:08:01;3.17;;;1.35;;
48987;SDS011;34799;51.440;-2.534;2022-12-07T14:10:52;7.28;;;1.85;;
48987;SDS011;34799;51.440;-2.534;2022-12-07T14:13:32;6.45;;;2.05;;
48987;SDS011;34799;51.440;-2.534;2022-12-07T14:18:52;9.73;;;2.17;;
48987;SDS011;34799;51.440;-2.534;2022-12-07T14:21:21;6.82;;;1.60;;
48987;SDS011;34799;51.440;-2.534;2022-12-07T14:24:10;9.82;;;1.85;;
48987;SDS011;34799;51.440;-2.534;2022-12-07T14:26:45;7.78;;;2.00;;
48987;SDS011;34799;51.440;-2.534;2022-12-07T14:31:54;10.18;;;1.95;;
48987;SDS011;34799;51.440;-2.534;2022-12-07T14:34:23;6.78;;;2.20;;
48987;SDS011;34799;51.440;-2.534;2022-12-07T14:36:51;9.63;;;1.77;;
48987;SDS011;34799;51.440;-2.534;2022-12-07T14:39:18;8.45;;;1.90;;
48987;SDS011;34799;51.440;-2.534;2022-12-07T14:41:45;6.13;;;1.58;;
48987;SDS011;34799;51.440;-2.534;2022-12-07T14:44:19;9.43;;;1.70;;
48987;SDS011;34799;51.440;-2.534;2022-12-07T14:46:49;6.88;;;2.30;;
48987;SDS011;34799;51.440;-2.534;2022-12-07T14:49:37;5.75;;;1.50;;
48987;SDS011;34799;51.440;-2.534;2022-12-07T14:52:05;11.55;;;3.47;;
48987;SDS011;34799;51.440;-2.534;2022-12-07T14:54:56;7.60;;;2.60;;
48987;SDS011;34799;51.440;-2.534;2022-12-07T14:57:23;5.32;;;1.98;;
48987;SDS011;34799;51.440;-2.534;2022-12-07T14:59:50;7.57;;;2.13;;
48987;SDS011;34799;51.440;-2.534;2022-12-07T15:02:17;5.10;;;1.63;;
48987;SDS011;34799;51.440;-2.534;2022-12-07T15:04:44;7.45;;;2.05;;
48987;SDS011;34799;51.440;-2.534;2022-12-07T15:07:17;7.18;;;1.52;;
48987;SDS011;34799;51.440;-2.534;2022-12-07T15:09:46;8.32;;;1.60;;
48987;SDS011;34799;51.440;-2.534;2022-12-07T15:12:14;8.90;;;2.08;;
48987;SDS011;34799;51.440;-2.534;2022-12-07T15:14:42;6.10;;;1.65;;
48987;SDS011;34799;51.440;-2.534;2022-12-07T15:17:10;8.45;;;2.08;;
48987;SDS011;34799;51.440;-2.534;2022-12-07T15:19:44;10.90;;;4.72;;
48987;SDS011;34799;51.440;-2.534;2022-12-07T15:22:11;5.65;;;2.17;;
48987;SDS011;34799;51.440;-2.534;2022-12-07T15:24:38;15.30;;;4.25;;
48987;SDS011;34799;51.440;-2.534;2022-12-07T15:27:05;8.52;;;2.72;;
48987;SDS011;34799;51.440;-2.534;2022-12-07T15:29:32;7.95;;;2.47;;
48987;SDS011;34799;51.440;-2.534;2022-12-07T15:32:00;10.18;;;2.85;;
48987;SDS011;34799;51.440;-2.534;2022-12-07T15:34:27;6.38;;;2.67;;
48987;SDS011;34799;51.440;-2.534;2022-12-07T15:36:57;5.85;;;2.50;;
48987;SDS011;34799;51.440;-2.534;2022-12-07T15:39:24;11.20;;;2.95;;
48987;SDS011;34799;51.440;-2.534;2022-12-07T15:41:53;7.03;;;2.28;;
48987;SDS011;34799;51.440;-2.534;2022-12-07T15:44:20;7.57;;;2.58;;
48987;SDS011;34799;51.440;-2.534;2022-12-07T15:47:05;9.40;;;2.65;;
48987;SDS011;34799;51.440;-2.534;2022-12-07T15:49:32;9.02;;;2.25;;
48987;SDS011;34799;51.440;-2.534;2022-12-07T15:51:59;10.85;;;3.33;;
48987;SDS011;34799;51.440;-2.534;2022-12-07T15:54:27;8.27;;;4.32;;
48987;SDS011;34799;51.440;-2.534;2022-12-07T15:56:56;11.38;;;5.05;;
48987;SDS011;34799;51.440;-2.534;2022-12-07T15:59:23;12.98;;;4.75;;
48987;SDS011;34799;51.440;-2.534;2022-12-07T16:01:52;14.80;;;6.03;;
48987;SDS011;34799;51.440;-2.534;2022-12-07T16:04:19;15.88;;;5.90;;
48987;SDS011;34799;51.440;-2.534;2022-12-07T16:06:47;11.50;;;5.80;;
48987;SDS011;34799;51.440;-2.534;2022-12-07T16:09:17;13.55;;;5.13;;
48987;SDS011;34799;51.440;-2.534;2022-12-07T16:11:44;15.55;;;5.60;;
48987;SDS011;34799;51.440;-2.534;2022-12-07T16:14:12;18.25;;;7.38;;
48987;SDS011;34799;51.440;-2.534;2022-12-07T16:16:40;27.55;;;10.18;;
48987;SDS011;34799;51.440;-2.534;2022-12-07T16:19:08;19.95;;;8.20;;
48987;SDS011;34799;51.440;-2.534;2022-12-07T16:21:37;21.48;;;9.30;;
48987;SDS011;34799;51.440;-2.534;2022-12-07T16:24:04;26.98;;;11.05;;
48987;SDS011;34799;51.440;-2.534;2022-12-07T16:26:33;26.80;;;13.32;;
48987;SDS011;34799;51.440;-2.534;2022-12-07T16:29:00;30.50;;;15.40;;
48987;SDS011;34799;51.440;-2.534;2022-12-07T16:31:28;27.75;;;15.50;;
48987;SDS011;34799;51.440;-2.534;2022-12-07T16:33:56;26.52;;;15.18;;
48987;SDS011;34799;51.440;-2.534;2022-12-07T16:36:25;26.05;;;14.27;;
48987;SDS011;34799;51.440;-2.534;2022-12-07T16:39:13;21.73;;;13.00;;
48987;SDS011;34799;51.440;-2.534;2022-12-07T16:41:40;26.63;;;13.75;;
48987;SDS011;34799;51.440;-2.534;2022-12-07T16:44:09;19.70;;;11.48;;
48987;SDS011;34799;51.440;-2.534;2022-12-07T16:46:38;15.48;;;6.30;;
48987;SDS011;34799;51.440;-2.534;2022-12-07T16:49:06;16.45;;;6.20;;
48987;SDS011;34799;51.440;-2.534;2022-12-07T16:51:37;13.82;;;5.53;;
48987;SDS011;34799;51.440;-2.534;2022-12-07T16:54:05;15.25;;;6.25;;
48987;SDS011;34799;51.440;-2.534;2022-12-07T16:56:32;9.55;;;5.80;;
48987;SDS011;34799;51.440;-2.534;2022-12-07T16:58:59;12.23;;;5.80;;
48987;SDS011;34799;51.440;-2.534;2022-12-07T17:01:29;14.35;;;5.32;;
48987;SDS011;34799;51.440;-2.534;2022-12-07T17:03:57;13.00;;;4.95;;
48987;SDS011;34799;51.440;-2.534;2022-12-07T17:06:26;10.93;;;5.40;;